Time;durP1;ratioP1;P1;durP2;ratioP2;P2;SDS_P1;SDS_P2;PMS_P1;PMS_P2;Temp;Humidity;BMP_temperature;BMP_pressure;BME280_temperature;BME280_humidity;BME280_pressure;Samples;Min_cycle;Max_cycle;Signal;HPM_P1;HPM_P2
2022/09/15 00:00:32;;;;;;;2.40;2.00;;;18.90;98.00;;;;;;5013682;28;20451;-70
2022/09/15 00:02:59;;;;;;;1.63;1.40;;;18.90;98.00;;;;;;5013580;28;20467;-71
2022/09/15 00:05:30;;;;;;;1.77;1.50;;;18.80;98.00;;;;;;5013697;28;21185;-72
2022/09/15 00:07:57;;;;;;;3.73;1.63;;;18.70;98.00;;;;;;5013594;28;20554;-71
2022/09/15 00:10:26;;;;;;;1.97;1.70;;;18.60;98.00;;;;;;5013645;28;20517;-72
2022/09/15 00:12:55;;;;;;;2.23;1.73;;;18.60;98.00;;;;;;5013445;28;20455;-71
2022/09/15 00:15:23;;;;;;;2.27;1.50;;;18.50;98.00;;;;;;5013396;28;21198;-71
2022/09/15 00:17:52;;;;;;;1.70;1.50;;;18.60;98.00;;;;;;5013410;28;20483;-71
2022/09/15 00:20:21;;;;;;;2.27;1.60;;;18.60;98.00;;;;;;5013908;28;20505;-71
2022/09/15 00:22:49;;;;;;;2.03;1.77;;;18.60;98.00;;;;;;5013438;28;20467;-71
2022/09/15 00:25:17;;;;;;;1.80;1.47;;;18.80;98.00;;;;;;5013573;28;20475;-71
2022/09/15 00:27:46;;;;;;;2.30;1.70;;;18.80;98.00;;;;;;5013286;28;20517;-72
2022/09/15 00:30:13;;;;;;;1.60;1.50;;;18.70;98.00;;;;;;5013086;28;20479;-71
2022/09/15 00:32:48;;;;;;;2.60;1.90;;;18.70;98.00;;;;;;5013203;28;20884;-71
2022/09/15 00:35:15;;;;;;;2.10;1.77;;;18.60;98.00;;;;;;5012954;28;20505;-72
2022/09/15 00:37:42;;;;;;;1.90;1.50;;;18.60;98.00;;;;;;5012825;28;21191;-71
2022/09/15 00:40:11;;;;;;;1.63;1.57;;;18.50;98.00;;;;;;5012993;28;20462;-72
2022/09/15 00:42:38;;;;;;;3.00;1.70;;;18.50;98.00;;;;;;5012789;28;20514;-72
2022/09/15 00:45:06;;;;;;;2.00;1.60;;;18.50;98.00;;;;;;4995565;28;20456;-71
2022/09/15 00:47:35;;;;;;;1.93;1.40;;;18.50;98.00;;;;;;5012723;28;20466;-71
2022/09/15 00:50:22;;;;;;;1.80;1.60;;;18.50;98.00;;;;;;5012759;28;20497;-70
2022/09/15 00:52:52;;;;;;;1.50;1.50;;;18.60;98.00;;;;;;5012653;28;20522;-71
2022/09/15 00:55:32;;;;;;;4.00;2.33;;;18.50;98.00;;;;;;5012595;28;20503;-71
2022/09/15 00:58:02;;;;;;;2.00;1.60;;;18.50;98.00;;;;;;5012637;28;20868;-72
2022/09/15 01:00:29;;;;;;;2.40;2.00;;;18.50;98.00;;;;;;4995418;28;20463;-71
2022/09/15 01:02:57;;;;;;;1.83;1.50;;;18.60;98.00;;;;;;5011587;28;20474;-71
2022/09/15 01:05:30;;;;;;;1.80;1.50;;;18.60;98.00;;;;;;5012392;28;20957;-71
2022/09/15 01:08:01;;;;;;;1.60;1.53;;;18.60;98.00;;;;;;5012694;28;20447;-71
2022/09/15 01:10:33;;;;;;;2.00;1.67;;;18.70;98.00;;;;;;5012452;28;20460;-71
2022/09/15 01:13:02;;;;;;;2.80;1.60;;;18.80;98.00;;;;;;5012499;28;20456;-71
2022/09/15 01:15:42;;;;;;;3.40;1.80;;;18.80;98.00;;;;;;5012322;28;20459;-71
2022/09/15 01:18:19;;;;;;;2.37;1.87;;;18.80;98.00;;;;;;5012252;28;20549;-71
2022/09/15 01:21:16;;;;;;;2.27;1.67;;;18.70;98.00;;;;;;5011968;28;20463;-72
2022/09/15 01:24:19;;;;;;;3.57;2.07;;;18.70;98.00;;;;;;4991382;28;20458;-71
2022/09/15 01:26:59;;;;;;;1.83;1.53;;;18.80;98.00;;;;;;4989696;28;20459;-71
2022/09/15 01:30:02;;;;;;;3.10;1.80;;;18.90;98.00;;;;;;5012048;28;20487;-71
2022/09/15 01:35:32;;;;;;;1.70;1.60;;;18.80;98.00;;;;;;5011948;28;20447;-71
2022/09/15 01:38:06;;;;;;;1.87;1.60;;;19.00;98.00;;;;;;4994273;28;20575;-71
2022/09/15 01:40:38;;;;;;;5.70;1.73;;;18.90;98.00;;;;;;5011929;28;20548;-72
2022/09/15 01:43:09;;;;;;;2.00;1.70;;;18.90;98.00;;;;;;5011987;28;20867;-71
2022/09/15 01:45:42;;;;;;;2.17;1.67;;;18.90;98.00;;;;;;5011965;28;20607;-71
2022/09/15 01:48:09;;;;;;;5.37;1.60;;;18.80;98.00;;;;;;5011962;28;20458;-71
2022/09/15 01:50:42;;;;;;;2.17;1.60;;;18.90;98.00;;;;;;5011616;28;20821;-71
2022/09/15 01:53:14;;;;;;;2.00;1.70;;;19.00;98.00;;;;;;5011818;28;20482;-71
2022/09/15 01:55:44;;;;;;;1.83;1.47;;;19.10;98.00;;;;;;4993931;28;20510;-72
2022/09/15 01:58:11;;;;;;;1.60;1.50;;;19.10;98.00;;;;;;5011561;28;20495;-71
2022/09/15 02:00:43;;;;;;;2.13;1.67;;;19.10;98.00;;;;;;5011547;28;20460;-72
2022/09/15 02:03:18;;;;;;;1.93;1.30;;;19.10;98.00;;;;;;5011215;28;20471;-71
2022/09/15 02:05:50;;;;;;;1.77;1.40;;;19.20;98.00;;;;;;4994483;28;20455;-71
2022/09/15 02:08:24;;;;;;;4.17;2.10;;;19.10;98.00;;;;;;5011555;28;20818;-72
2022/09/15 02:11:02;;;;;;;1.93;1.30;;;19.10;98.00;;;;;;4994288;28;20459;-72
2022/09/15 02:13:38;;;;;;;1.80;1.77;;;19.10;98.00;;;;;;5011102;28;20486;-72
2022/09/15 02:16:18;;;;;;;1.60;1.37;;;19.10;98.00;;;;;;5011455;28;20490;-71
2022/09/15 02:18:56;;;;;;;3.10;1.70;;;19.10;98.00;;;;;;5011325;28;20491;-71
2022/09/15 02:21:30;;;;;;;1.63;1.40;;;19.20;98.00;;;;;;5011720;28;20459;-72
2022/09/15 02:24:02;;;;;;;1.30;1.23;;;19.20;98.00;;;;;;5011711;28;20471;-71
2022/09/15 02:26:33;;;;;;;1.73;1.37;;;19.20;98.00;;;;;;5011487;28;20510;-71
2022/09/15 02:29:06;;;;;;;2.33;1.60;;;19.20;98.00;;;;;;5011123;28;20463;-71
2022/09/15 02:31:39;;;;;;;1.40;1.37;;;19.20;98.00;;;;;;5011207;28;20514;-71
2022/09/15 02:34:14;;;;;;;1.80;1.53;;;19.20;98.00;;;;;;4993791;28;20731;-71
2022/09/15 02:36:42;;;;;;;2.10;1.80;;;19.20;98.00;;;;;;5011158;28;20463;-71
2022/09/15 02:39:13;;;;;;;1.97;1.70;;;19.30;98.00;;;;;;5011187;28;20506;-71
2022/09/15 02:41:40;;;;;;;2.00;1.43;;;19.30;98.00;;;;;;4993975;28;20463;-71
2022/09/15 02:44:09;;;;;;;1.60;1.50;;;19.30;98.00;;;;;;5011313;28;20495;-71
2022/09/15 02:46:38;;;;;;;2.37;1.63;;;19.30;98.00;;;;;;5011053;28;20546;-72
2022/09/15 02:49:06;;;;;;;2.40;1.57;;;19.40;98.00;;;;;;5011039;28;20460;-71
2022/09/15 02:51:33;;;;;;;2.23;1.80;;;19.40;98.00;;;;;;5011031;28;20455;-71
2022/09/15 02:54:00;;;;;;;1.37;1.33;;;19.40;98.00;;;;;;5011004;28;20546;-71
2022/09/15 02:56:27;;;;;;;1.53;1.20;;;19.40;98.00;;;;;;5011125;28;20459;-70
2022/09/15 02:58:54;;;;;;;3.40;1.50;;;19.40;98.00;;;;;;5010885;28;20484;-71
2022/09/15 03:01:31;;;;;;;1.70;1.47;;;19.30;98.00;;;;;;5011085;28;20526;-71
2022/09/15 03:03:59;;;;;;;1.67;1.50;;;19.30;98.00;;;;;;5010755;28;21011;-71
2022/09/15 03:06:29;;;;;;;1.70;1.40;;;19.30;98.00;;;;;;5010855;28;20876;-71
2022/09/15 03:08:59;;;;;;;1.83;1.40;;;19.30;98.00;;;;;;5011157;28;20475;-71
2022/09/15 03:11:28;;;;;;;1.97;1.50;;;19.30;98.00;;;;;;4993822;28;20476;-71
2022/09/15 03:13:57;;;;;;;1.70;1.57;;;19.30;98.00;;;;;;5010906;28;20464;-72
2022/09/15 03:16:27;;;;;;;1.60;1.40;;;19.40;98.00;;;;;;5010990;28;20452;-72
2022/09/15 03:18:55;;;;;;;4.87;1.70;;;19.40;98.00;;;;;;4993720;28;20482;-72
2022/09/15 03:21:24;;;;;;;2.73;1.90;;;19.40;98.00;;;;;;5011092;28;20517;-71
2022/09/15 03:23:51;;;;;;;1.80;1.50;;;19.30;98.00;;;;;;5011080;28;20876;-71
2022/09/15 03:26:18;;;;;;;1.80;1.40;;;19.30;98.00;;;;;;5013918;28;20479;-71
2022/09/15 03:28:48;;;;;;;1.63;1.37;;;19.40;98.00;;;;;;5014294;28;20467;-72
2022/09/15 03:31:16;;;;;;;1.67;1.43;;;19.30;98.00;;;;;;5014415;28;20472;-71
2022/09/15 03:33:44;;;;;;;2.17;1.60;;;19.40;98.00;;;;;;5014136;28;20455;-71
2022/09/15 03:36:11;;;;;;;1.50;1.37;;;19.30;98.00;;;;;;5014208;28;20463;-72
2022/09/15 03:38:40;;;;;;;1.80;1.57;;;19.40;98.00;;;;;;5013987;28;20562;-71
2022/09/15 03:41:09;;;;;;;1.57;1.50;;;19.40;98.00;;;;;;5014137;28;20458;-72
2022/09/15 03:43:37;;;;;;;1.50;1.40;;;19.40;98.00;;;;;;5013914;28;20475;-72
2022/09/15 03:46:07;;;;;;;1.60;1.50;;;19.30;98.00;;;;;;5013956;28;20954;-71
2022/09/15 03:48:35;;;;;;;1.70;1.60;;;19.30;98.00;;;;;;5013873;28;20924;-72
2022/09/15 03:51:03;;;;;;;5.83;1.70;;;19.20;98.00;;;;;;5013826;28;20468;-71
2022/09/15 03:53:32;;;;;;;1.40;1.30;;;19.10;98.00;;;;;;5013709;28;20977;-71
2022/09/15 03:56:09;;;;;;;2.40;1.60;;;19.20;98.00;;;;;;5013863;28;20464;-71
2022/09/15 03:58:36;;;;;;;3.27;1.60;;;19.20;98.00;;;;;;5013212;28;20486;-71
2022/09/15 04:01:04;;;;;;;2.60;1.70;;;19.20;98.00;;;;;;5013759;28;20452;-72
2022/09/15 04:03:31;;;;;;;2.37;1.67;;;19.20;98.00;;;;;;5013659;28;20460;-71
2022/09/15 04:05:58;;;;;;;1.57;1.53;;;19.20;98.00;;;;;;4996178;28;20538;-71
2022/09/15 04:08:25;;;;;;;1.53;1.30;;;19.20;98.00;;;;;;5013805;28;20811;-71
2022/09/15 04:10:53;;;;;;;1.40;1.40;;;19.10;98.00;;;;;;4995966;28;20965;-72
2022/09/15 04:13:22;;;;;;;3.47;1.57;;;19.10;98.00;;;;;;5013463;28;20451;-72
2022/09/15 04:15:58;;;;;;;1.50;1.40;;;19.20;98.00;;;;;;5013477;28;20468;-72
2022/09/15 04:18:25;;;;;;;2.37;1.47;;;19.20;98.00;;;;;;5013492;28;20483;-71
2022/09/15 04:20:52;;;;;;;1.80;1.50;;;19.30;98.00;;;;;;5013476;28;20994;-72
2022/09/15 04:23:20;;;;;;;2.10;1.37;;;19.30;98.00;;;;;;5013481;28;20976;-71
2022/09/15 04:25:55;;;;;;;2.00;1.60;;;19.20;98.00;;;;;;5013098;28;20460;-71
2022/09/15 04:28:24;;;;;;;1.33;1.20;;;19.20;98.00;;;;;;5013256;28;20459;-71
2022/09/15 04:30:53;;;;;;;1.37;1.30;;;19.30;98.00;;;;;;5013190;28;20889;-71
2022/09/15 04:33:21;;;;;;;1.50;1.40;;;19.30;98.00;;;;;;5013184;28;20831;-72
2022/09/15 04:35:48;;;;;;;2.27;1.60;;;19.30;98.00;;;;;;5012628;28;20460;-72
2022/09/15 04:38:16;;;;;;;1.67;1.30;;;19.20;98.00;;;;;;5012840;28;20466;-72
2022/09/15 04:40:44;;;;;;;2.37;1.67;;;19.20;98.00;;;;;;5012751;28;20495;-71
2022/09/15 04:43:11;;;;;;;8.13;1.57;;;19.20;98.00;;;;;;5012941;28;20451;-71
2022/09/15 04:45:39;;;;;;;2.83;1.50;;;19.30;98.00;;;;;;5012704;28;20452;-71
2022/09/15 04:48:07;;;;;;;3.60;1.50;;;19.30;98.00;;;;;;5012778;28;20970;-71
2022/09/15 04:50:34;;;;;;;1.43;1.40;;;19.20;98.00;;;;;;5012551;28;20463;-71
2022/09/15 04:53:01;;;;;;;1.40;1.30;;;19.20;98.00;;;;;;5012740;28;20455;-72
2022/09/15 04:55:28;;;;;;;1.30;1.30;;;19.20;98.00;;;;;;4994950;28;20464;-72
2022/09/15 04:57:55;;;;;;;1.70;1.40;;;19.20;98.00;;;;;;5012862;28;20456;-71
2022/09/15 05:00:23;;;;;;;7.23;1.50;;;19.20;98.00;;;;;;5012439;28;20538;-71
2022/09/15 05:02:52;;;;;;;1.90;1.60;;;19.20;98.00;;;;;;5012607;28;20463;-71
2022/09/15 05:05:19;;;;;;;1.93;1.33;;;19.20;98.00;;;;;;5012571;28;20447;-72
2022/09/15 05:07:47;;;;;;;1.50;1.20;;;19.20;98.00;;;;;;5012523;28;20981;-72
2022/09/15 05:10:14;;;;;;;1.63;1.57;;;19.20;98.00;;;;;;5012514;28;20455;-71
2022/09/15 05:12:41;;;;;;;1.63;1.40;;;19.20;98.00;;;;;;5012260;28;20466;-72
2022/09/15 05:15:09;;;;;;;2.13;1.40;;;19.20;98.00;;;;;;5012317;28;20460;-72
2022/09/15 05:17:36;;;;;;;2.80;1.50;;;19.20;98.00;;;;;;5011766;28;20490;-71
2022/09/15 05:20:05;;;;;;;1.50;1.40;;;19.20;98.00;;;;;;5012391;28;20491;-72
2022/09/15 05:22:33;;;;;;;1.53;1.50;;;19.20;98.00;;;;;;5012577;28;20470;-72
2022/09/15 05:25:00;;;;;;;2.03;1.30;;;19.20;98.00;;;;;;4994939;28;20455;-72
2022/09/15 05:27:30;;;;;;;1.53;1.30;;;19.30;98.00;;;;;;5012353;28;20463;-71
2022/09/15 05:29:57;;;;;;;1.57;1.30;;;19.30;98.00;;;;;;5012281;28;20475;-72
2022/09/15 05:32:24;;;;;;;2.50;1.67;;;19.20;98.00;;;;;;5012057;28;20460;-71
2022/09/15 05:34:51;;;;;;;1.30;1.17;;;19.20;98.00;;;;;;4994502;28;20474;-70
2022/09/15 05:37:22;;;;;;;1.50;1.30;;;19.20;98.00;;;;;;5012039;28;20460;-72
2022/09/15 05:39:49;;;;;;;2.10;1.50;;;19.10;98.00;;;;;;5011811;28;20483;-72
2022/09/15 05:42:16;;;;;;;2.33;1.80;;;19.10;98.00;;;;;;5011824;28;20459;-71
2022/09/15 05:44:43;;;;;;;1.30;1.30;;;19.10;98.00;;;;;;5011694;28;20464;-72
2022/09/15 05:47:10;;;;;;;1.90;1.70;;;19.20;98.00;;;;;;5010973;28;20569;-71
2022/09/15 05:49:38;;;;;;;3.17;1.70;;;19.20;98.00;;;;;;5011688;28;20455;-71
2022/09/15 05:52:06;;;;;;;1.27;1.23;;;19.20;98.00;;;;;;5011741;28;20463;-71
2022/09/15 05:54:37;;;;;;;1.70;1.70;;;19.20;98.00;;;;;;5011711;28;20455;-72
2022/09/15 05:57:04;;;;;;;1.50;1.40;;;19.20;98.00;;;;;;5011576;28;20510;-71
2022/09/15 05:59:32;;;;;;;1.70;1.43;;;19.10;98.00;;;;;;5011477;28;20475;-71
2022/09/15 06:01:59;;;;;;;1.30;1.30;;;19.10;98.00;;;;;;5011501;28;20451;-72
2022/09/15 06:04:26;;;;;;;1.53;1.50;;;19.10;98.00;;;;;;5011503;28;20887;-67
2022/09/15 06:06:53;;;;;;;1.50;1.40;;;19.10;98.00;;;;;;5011490;28;20551;-67
2022/09/15 06:09:20;;;;;;;2.97;1.40;;;19.10;98.00;;;;;;4994264;28;20464;-67
2022/09/15 06:11:49;;;;;;;1.67;1.33;;;19.10;98.00;;;;;;5011329;28;20459;-67
2022/09/15 06:14:16;;;;;;;1.67;1.43;;;19.10;98.00;;;;;;5011573;28;20459;-68
2022/09/15 06:16:43;;;;;;;2.03;1.40;;;19.20;98.00;;;;;;5011400;28;20455;-67
2022/09/15 06:19:10;;;;;;;1.70;1.43;;;19.20;98.00;;;;;;4977942;28;20977;-67
2022/09/15 06:21:37;;;;;;;1.70;1.50;;;19.10;98.00;;;;;;5011452;28;20491;-67
2022/09/15 06:24:06;;;;;;;2.00;1.53;;;19.10;98.00;;;;;;4993934;28;20483;-67
2022/09/15 06:26:33;;;;;;;1.47;1.40;;;19.20;98.00;;;;;;4977655;28;20801;-67
2022/09/15 06:29:03;;;;;;;1.50;1.40;;;19.20;98.00;;;;;;5011386;28;20455;-67
2022/09/15 06:31:32;;;;;;;1.43;1.30;;;19.30;98.00;;;;;;5010779;28;20473;-67
2022/09/15 06:34:01;;;;;;;1.70;1.60;;;19.30;98.00;;;;;;5011323;28;20458;-68
2022/09/15 06:36:29;;;;;;;1.43;1.40;;;19.30;98.00;;;;;;5011310;28;20803;-67
2022/09/15 06:38:57;;;;;;;1.60;1.40;;;19.30;98.00;;;;;;5011053;28;20462;-67
2022/09/15 06:41:24;;;;;;;1.67;1.50;;;19.30;98.00;;;;;;5011047;28;20490;-68
2022/09/15 06:43:51;;;;;;;1.37;1.30;;;19.30;98.00;;;;;;5010969;28;20836;-67
2022/09/15 06:46:22;;;;;;;1.20;1.20;;;19.40;98.00;;;;;;5010783;28;20455;-67
2022/09/15 06:52:01;;;;;;;1.30;1.20;;;19.40;98.00;;;;;;5011531;28;20447;-68
2022/09/15 06:54:28;;;;;;;1.30;1.20;;;19.50;98.00;;;;;;5011449;28;20527;-67
2022/09/15 06:56:56;;;;;;;1.50;1.50;;;19.40;98.00;;;;;;4993636;28;20873;-67
2022/09/15 06:59:23;;;;;;;1.60;1.40;;;19.30;98.00;;;;;;5013177;28;20464;-68
2022/09/15 07:01:54;;;;;;;1.40;1.30;;;19.30;98.00;;;;;;5014958;28;20586;-67
2022/09/15 07:04:23;;;;;;;3.50;1.40;;;19.20;98.00;;;;;;5014974;28;20471;-67
2022/09/15 07:06:50;;;;;;;1.30;1.30;;;19.20;98.00;;;;;;5014619;28;20463;-67
2022/09/15 07:09:18;;;;;;;1.30;1.20;;;19.00;98.00;;;;;;5014448;28;20483;-67
2022/09/15 07:11:45;;;;;;;1.70;1.40;;;19.00;98.00;;;;;;5014513;28;20493;-67
2022/09/15 07:14:12;;;;;;;1.57;1.37;;;18.90;98.00;;;;;;5014624;28;20466;-67
2022/09/15 07:16:39;;;;;;;1.70;1.17;;;18.80;98.00;;;;;;5014672;28;20459;-67
2022/09/15 07:19:09;;;;;;;1.60;1.30;;;18.80;98.00;;;;;;5014454;28;20451;-67
2022/09/15 07:21:36;;;;;;;1.53;1.50;;;18.80;98.00;;;;;;5014465;28;20582;-67
2022/09/15 07:24:04;;;;;;;3.33;1.37;;;18.70;98.00;;;;;;5014602;28;20466;-67
2022/09/15 07:26:32;;;;;;;1.70;1.17;;;18.70;98.00;;;;;;5013970;28;20495;-67
2022/09/15 07:29:01;;;;;;;2.10;1.40;;;18.60;98.00;;;;;;5013902;28;20509;-67
2022/09/15 07:31:30;;;;;;;1.80;1.60;;;18.80;98.00;;;;;;5014230;28;20471;-67
2022/09/15 07:33:58;;;;;;;1.23;1.10;;;18.70;98.00;;;;;;5014207;28;20954;-67
2022/09/15 07:36:27;;;;;;;2.00;1.30;;;18.60;98.00;;;;;;5014623;28;20506;-67
2022/09/15 07:38:54;;;;;;;1.40;1.30;;;18.70;98.00;;;;;;5014834;28;20451;-67
2022/09/15 07:41:22;;;;;;;2.20;1.70;;;18.60;98.00;;;;;;5013272;28;20992;-68
2022/09/15 07:43:51;;;;;;;2.47;1.33;;;18.60;98.00;;;;;;5013758;28;20482;-68
2022/09/15 07:46:20;;;;;;;1.43;1.40;;;18.60;98.00;;;;;;5030926;28;20487;-67
2022/09/15 07:48:48;;;;;;;2.80;1.20;;;18.50;98.00;;;;;;5030387;28;20541;-68
2022/09/15 07:51:18;;;;;;;1.30;1.30;;;18.50;98.00;;;;;;5026474;28;20937;-68
2022/09/15 07:53:48;;;;;;;1.70;1.40;;;18.50;98.00;;;;;;5029976;28;20494;-68
2022/09/15 07:56:17;;;;;;;1.50;1.33;;;18.60;98.00;;;;;;5006192;28;20482;-68
2022/09/15 07:58:44;;;;;;;1.93;1.40;;;18.60;98.00;;;;;;5020205;28;20452;-67
2022/09/15 08:01:13;;;;;;;3.10;1.50;;;18.70;98.00;;;;;;5014305;28;20488;-67
2022/09/15 08:03:41;;;;;;;1.60;1.40;;;18.90;98.00;;;;;;5014142;28;20465;-67
2022/09/15 08:06:09;;;;;;;1.43;1.20;;;19.10;98.00;;;;;;5014279;28;21088;-68
2022/09/15 08:08:37;;;;;;;1.50;1.40;;;19.00;98.00;;;;;;5013924;28;20974;-68
2022/09/15 08:11:11;;;;;;;1.57;1.50;;;19.00;98.00;;;;;;5013427;28;20517;-69
2022/09/15 08:13:38;;;;;;;2.10;1.40;;;19.10;98.00;;;;;;5014387;28;20467;-67
2022/09/15 08:16:07;;;;;;;1.70;1.50;;;19.20;98.00;;;;;;4996990;28;20451;-68
2022/09/15 08:18:34;;;;;;;1.73;1.57;;;19.30;98.00;;;;;;5014281;28;20475;-66
2022/09/15 08:21:05;;;;;;;1.73;1.33;;;19.30;98.00;;;;;;5014019;28;20528;-68
2022/09/15 08:23:33;;;;;;;3.93;1.70;;;19.40;98.00;;;;;;5013814;28;20538;-67
2022/09/15 08:26:00;;;;;;;1.90;1.43;;;19.20;98.00;;;;;;5014057;28;20460;-67
2022/09/15 08:28:28;;;;;;;1.50;1.50;;;19.10;98.00;;;;;;5013886;28;20566;-67
2022/09/15 08:31:02;;;;;;;2.73;1.60;;;19.10;98.00;;;;;;5013596;28;20462;-67
2022/09/15 08:33:30;;;;;;;1.77;1.47;;;19.00;98.00;;;;;;5013792;28;20523;-67
2022/09/15 08:36:03;;;;;;;2.10;1.60;;;19.00;98.00;;;;;;5013687;28;20831;-67
2022/09/15 08:38:31;;;;;;;2.27;1.60;;;19.00;98.00;;;;;;5013740;28;20460;-67
2022/09/15 08:41:01;;;;;;;1.60;1.40;;;19.00;98.00;;;;;;5013253;28;20490;-67
2022/09/15 08:43:36;;;;;;;2.80;1.30;;;18.80;98.00;;;;;;5013731;28;20459;-67
2022/09/15 08:46:06;;;;;;;1.30;1.30;;;18.80;98.00;;;;;;5013438;28;20451;-67
2022/09/15 08:48:40;;;;;;;1.80;1.70;;;18.70;98.00;;;;;;5013431;28;20452;-67
2022/09/15 08:51:13;;;;;;;1.57;1.47;;;18.70;98.00;;;;;;5013591;28;20902;-67
2022/09/15 08:53:46;;;;;;;2.00;1.37;;;18.80;98.00;;;;;;5013415;28;20895;-68
2022/09/15 08:56:16;;;;;;;1.57;1.43;;;18.80;98.00;;;;;;5013240;28;20922;-68
2022/09/15 08:58:46;;;;;;;1.47;1.43;;;18.70;98.00;;;;;;5013326;28;20513;-67
2022/09/15 09:01:23;;;;;;;1.60;1.20;;;18.70;98.00;;;;;;4996013;28;20483;-67
2022/09/15 09:04:22;;;;;;;1.50;1.40;;;18.80;98.00;;;;;;5013095;28;20467;-67
2022/09/15 09:07:02;;;;;;;2.80;1.37;;;18.80;98.00;;;;;;4995557;28;20471;-67
2022/09/15 09:09:37;;;;;;;1.50;1.30;;;18.80;98.00;;;;;;5013238;28;21008;-67
2022/09/15 09:12:20;;;;;;;1.87;1.53;;;18.80;98.00;;;;;;5013264;28;20457;-67
2022/09/15 09:15:03;;;;;;;1.30;1.10;;;18.90;98.00;;;;;;5012900;28;20818;-67
2022/09/15 09:17:48;;;;;;;1.80;1.53;;;18.90;98.00;;;;;;5013065;28;20482;-67
2022/09/15 09:20:32;;;;;;;1.93;1.60;;;19.00;98.00;;;;;;4995239;28;20487;-67
2022/09/15 09:23:03;;;;;;;2.03;1.50;;;18.90;98.00;;;;;;5011868;28;20832;-67
2022/09/15 09:25:30;;;;;;;1.50;1.40;;;18.80;98.00;;;;;;4995105;28;20455;-67
2022/09/15 09:27:59;;;;;;;1.60;1.50;;;18.90;98.00;;;;;;5012762;28;20466;-67
2022/09/15 09:30:32;;;;;;;1.20;1.20;;;18.90;98.00;;;;;;5012674;28;20451;-67
2022/09/15 09:33:29;;;;;;;1.60;1.50;;;19.00;98.00;;;;;;5012753;28;20456;-67
2022/09/15 09:36:00;;;;;;;2.73;1.43;;;19.10;98.00;;;;;;5012541;28;20474;-67
2022/09/15 09:38:30;;;;;;;1.30;1.30;;;19.30;98.00;;;;;;5012760;28;20866;-67
2022/09/15 09:40:57;;;;;;;1.43;1.23;;;19.30;98.00;;;;;;5012480;28;20579;-67
2022/09/15 09:43:26;;;;;;;1.83;1.50;;;19.30;98.00;;;;;;5012632;28;21041;-67
2022/09/15 09:45:55;;;;;;;2.03;1.63;;;19.30;98.00;;;;;;5012353;28;21003;-67
2022/09/15 09:48:25;;;;;;;1.53;1.40;;;19.30;98.00;;;;;;5012332;28;20459;-67
2022/09/15 09:50:52;;;;;;;2.33;1.73;;;19.30;98.00;;;;;;5012096;28;20958;-68
2022/09/15 09:53:28;;;;;;;2.00;1.63;;;19.30;98.00;;;;;;5012260;28;20460;-67
2022/09/15 09:56:12;;;;;;;1.33;1.30;;;19.30;98.00;;;;;;5012058;28;20546;-67
2022/09/15 09:58:39;;;;;;;1.40;1.40;;;19.50;98.00;;;;;;5012122;28;20555;-67
2022/09/15 10:01:15;;;;;;;1.63;1.63;;;19.60;98.00;;;;;;5011928;28;20483;-67
2022/09/15 10:03:44;;;;;;;1.93;1.60;;;19.70;98.00;;;;;;5011959;28;20471;-67
2022/09/15 10:06:14;;;;;;;1.20;1.20;;;19.80;98.00;;;;;;5012009;28;20510;-67
2022/09/15 10:08:55;;;;;;;2.47;1.70;;;19.80;98.00;;;;;;5012373;28;20462;-67
2022/09/15 10:11:38;;;;;;;1.30;1.30;;;19.80;98.00;;;;;;5012111;28;20554;-67
2022/09/15 10:14:06;;;;;;;1.60;1.40;;;19.80;98.00;;;;;;5012144;28;20467;-67
2022/09/15 10:16:34;;;;;;;1.73;1.60;;;19.90;98.00;;;;;;5011889;28;20462;-67
2022/09/15 10:19:01;;;;;;;1.20;1.20;;;19.90;98.00;;;;;;5011832;28;21012;-68
2022/09/15 10:21:31;;;;;;;4.53;1.70;;;19.80;98.00;;;;;;5011745;28;20495;-67
2022/09/15 10:24:18;;;;;;;3.20;1.23;;;19.60;98.00;;;;;;4994284;28;20466;-67
2022/09/15 10:26:45;;;;;;;1.87;1.37;;;19.60;98.00;;;;;;5011267;28;20463;-67
2022/09/15 10:29:15;;;;;;;1.40;1.13;;;19.40;98.00;;;;;;5011809;28;20893;-67
2022/09/15 10:31:44;;;;;;;1.30;1.20;;;19.10;98.00;;;;;;5011771;28;20474;-67
2022/09/15 10:34:26;;;;;;;1.20;1.20;;;19.00;98.00;;;;;;5013522;28;20466;-67
2022/09/15 10:37:00;;;;;;;1.20;1.13;;;19.00;98.00;;;;;;5015772;28;20460;-67
2022/09/15 10:39:36;;;;;;;1.40;1.30;;;18.90;98.00;;;;;;4998456;28;20463;-67
2022/09/15 10:42:11;;;;;;;1.40;1.30;;;18.90;98.00;;;;;;5015792;28;20487;-67
2022/09/15 10:44:51;;;;;;;1.90;1.30;;;18.90;98.00;;;;;;5015768;28;20470;-67
2022/09/15 10:47:33;;;;;;;1.20;1.20;;;19.00;98.00;;;;;;5015799;28;20546;-67
2022/09/15 10:50:15;;;;;;;1.30;1.17;;;19.10;98.00;;;;;;5015543;28;20464;-67
2022/09/15 10:53:16;;;;;;;1.30;1.23;;;19.00;98.00;;;;;;5015781;28;20459;-66
2022/09/15 10:55:55;;;;;;;2.03;1.30;;;19.00;98.00;;;;;;5226314;23;20497;-65
2022/09/15 10:58:47;;;;;;;1.20;1.20;;;19.30;98.00;;;;;;5034974;28;20469;-65
2022/09/15 11:01:32;;;;;;;1.20;1.03;;;19.70;98.00;;;;;;5020055;28;20536;-63
2022/09/15 11:04:27;;;;;;;1.17;1.00;;;19.90;98.00;;;;;;5035300;28;20465;-63
2022/09/15 11:07:04;;;;;;;1.20;1.00;;;19.80;98.00;;;;;;5021604;28;20486;-63
2022/09/15 11:09:35;;;;;;;1.20;1.00;;;19.60;98.00;;;;;;5035038;28;20459;-64
2022/09/15 11:12:16;;;;;;;1.20;1.10;;;19.40;98.00;;;;;;5035118;28;20928;-64
2022/09/15 11:15:00;;;;;;;1.47;1.13;;;19.20;98.00;;;;;;5035329;28;20467;-63
2022/09/15 11:17:51;;;;;;;1.20;1.00;;;18.90;98.00;;;;;;5035169;28;20459;-63
2022/09/15 11:20:51;;;;;;;1.60;1.47;;;18.70;98.00;;;;;;5035179;28;20956;-63
2022/09/15 11:23:25;;;;;;;1.20;1.00;;;18.50;98.00;;;;;;5024556;28;20462;-63
2022/09/15 11:25:58;;;;;;;1.20;1.00;;;18.40;98.00;;;;;;5217189;23;20806;-63
2022/09/15 11:28:30;;;;;;;1.30;1.10;;;18.20;98.00;;;;;;5034687;28;20454;-64
2022/09/15 11:31:02;;;;;;;1.20;1.00;;;18.10;98.00;;;;;;5034312;28;20458;-63
2022/09/15 11:33:34;;;;;;;1.50;1.30;;;18.00;98.00;;;;;;5017535;28;20454;-64
2022/09/15 11:36:07;;;;;;;1.13;1.00;;;18.00;98.00;;;;;;5033407;28;20458;-63
2022/09/15 11:38:46;;;;;;;1.20;1.10;;;18.10;98.00;;;;;;5034070;28;20482;-64
2022/09/15 11:41:20;;;;;;;2.03;1.40;;;18.10;98.00;;;;;;5034603;28;20518;-64
2022/09/15 11:44:07;;;;;;;1.20;1.20;;;18.10;98.00;;;;;;5034327;28;20475;-64
2022/09/15 11:46:48;;;;;;;1.20;1.00;;;17.80;98.00;;;;;;5033372;28;20953;-64
2022/09/15 11:49:20;;;;;;;1.20;1.17;;;17.70;98.00;;;;;;5034493;28;20521;-64
2022/09/15 11:51:53;;;;;;;1.90;1.80;;;17.70;98.00;;;;;;5034250;28;20941;-64
2022/09/15 11:54:29;;;;;;;3.73;1.40;;;17.50;98.00;;;;;;5034479;28;20832;-64
2022/09/15 11:56:56;;;;;;;2.33;1.37;;;17.50;98.00;;;;;;5034427;28;20944;-64
2022/09/15 11:59:31;;;;;;;1.43;1.20;;;17.30;98.00;;;;;;5034553;28;20458;-64
2022/09/15 12:02:10;;;;;;;2.60;1.40;;;17.20;98.00;;;;;;5026001;28;20572;-64
2022/09/15 12:04:44;;;;;;;1.60;1.33;;;17.10;98.00;;;;;;5033879;28;20484;-65
2022/09/15 12:07:17;;;;;;;1.40;1.30;;;17.10;98.00;;;;;;5032334;28;20937;-65
2022/09/15 12:09:47;;;;;;;1.40;1.20;;;17.20;98.00;;;;;;5014557;28;20467;-64
2022/09/15 12:12:17;;;;;;;1.17;1.17;;;17.30;98.00;;;;;;5014353;28;20517;-65
2022/09/15 12:14:47;;;;;;;1.40;1.20;;;17.30;98.00;;;;;;5039615;28;20458;-65
2022/09/15 12:17:21;;;;;;;1.70;1.30;;;17.30;98.00;;;;;;5053971;28;20461;-65
2022/09/15 12:19:55;;;;;;;1.40;1.10;;;17.30;98.00;;;;;;5053914;28;20462;-64
2022/09/15 12:22:28;;;;;;;1.73;1.30;;;17.30;98.00;;;;;;5053625;28;20482;-64
2022/09/15 12:25:03;;;;;;;1.17;1.07;;;17.30;98.00;;;;;;5053706;28;20472;-64
2022/09/15 12:27:30;;;;;;;1.60;1.33;;;17.30;98.00;;;;;;5053023;28;20464;-65
2022/09/15 12:29:59;;;;;;;1.37;1.20;;;17.40;98.00;;;;;;5036004;28;20955;-64
2022/09/15 12:32:27;;;;;;;1.70;1.40;;;17.40;98.00;;;;;;5053143;28;20457;-64
2022/09/15 12:34:58;;;;;;;1.70;1.60;;;17.30;98.00;;;;;;5053515;28;20469;-64
2022/09/15 12:37:29;;;;;;;1.90;1.70;;;17.30;98.00;;;;;;5053321;28;20454;-65
2022/09/15 12:39:58;;;;;;;1.40;1.27;;;17.30;98.00;;;;;;5053374;28;20798;-64
2022/09/15 12:42:27;;;;;;;1.40;1.30;;;17.30;98.00;;;;;;5053170;28;20543;-65
2022/09/15 12:44:58;;;;;;;1.70;1.20;;;17.40;98.00;;;;;;5053505;28;20554;-65
2022/09/15 12:47:32;;;;;;;1.53;1.40;;;17.60;98.00;;;;;;5053281;28;20458;-65
2022/09/15 12:50:07;;;;;;;1.30;1.30;;;17.60;98.00;;;;;;5053224;28;20470;-64
2022/09/15 12:52:44;;;;;;;1.60;1.50;;;17.70;98.00;;;;;;5053193;28;20457;-64
2022/09/15 12:55:19;;;;;;;2.03;1.60;;;17.80;98.00;;;;;;5053307;28;20465;-64
2022/09/15 12:57:55;;;;;;;1.50;1.33;;;17.80;98.00;;;;;;5052982;28;20548;-64
2022/09/15 13:00:38;;;;;;;1.57;1.50;;;17.90;98.00;;;;;;5050840;28;20457;-65
2022/09/15 13:03:25;;;;;;;1.53;1.37;;;17.90;98.00;;;;;;5052658;28;20556;-64
2022/09/15 13:06:18;;;;;;;2.27;1.60;;;17.90;98.00;;;;;;5035252;28;20552;-64
2022/09/15 13:08:54;;;;;;;2.40;1.57;;;17.90;98.00;;;;;;5053123;28;20454;-65
2022/09/15 13:11:36;;;;;;;7.40;2.20;;;17.90;98.00;;;;;;5053037;28;20458;-64
2022/09/15 13:14:26;;;;;;;3.10;1.83;;;17.90;98.00;;;;;;5050534;28;20490;-65
2022/09/15 13:16:58;;;;;;;2.03;1.43;;;17.80;98.00;;;;;;5052936;28;20540;-65